Time;durP1;ratioP1;P1;durP2;ratioP2;P2;SDS_P1;SDS_P2;PMS_P1;PMS_P2;Temp;Humidity;BMP_temperature;BMP_pressure;BME280_temperature;BME280_humidity;BME280_pressure;Samples;Min_cycle;Max_cycle;Signal;HPM_P1;HPM_P2
2022/11/16 00:01:29;;;;;;;5.27;4.77;;;10.90;99.90;;;;;;5039800;28;20456;-82
2022/11/16 00:03:58;;;;;;;6.40;5.17;;;11.00;99.90;;;;;;5040242;28;20554;-83
2022/11/16 00:06:26;;;;;;;6.13;5.53;;;11.10;99.90;;;;;;5052122;28;20473;-83
2022/11/16 00:11:42;;;;;;;5.90;5.17;;;11.10;99.90;;;;;;5039423;28;20420;-83
2022/11/16 00:14:10;;;;;;;5.80;5.30;;;11.10;99.90;;;;;;5039645;28;20462;-83
2022/11/16 00:16:37;;;;;;;5.47;4.97;;;11.10;99.90;;;;;;5039178;28;20476;-83
2022/11/16 00:19:05;;;;;;;6.63;5.23;;;10.90;99.90;;;;;;5038677;28;21289;-83
2022/11/16 00:21:32;;;;;;;5.00;4.67;;;11.00;99.90;;;;;;5039207;28;20444;-82
2022/11/16 00:23:59;;;;;;;5.47;4.97;;;10.80;99.90;;;;;;5038947;28;20876;-83
2022/11/16 00:26:26;;;;;;;8.20;7.43;;;10.70;99.90;;;;;;5038888;28;20501;-83
2022/11/16 00:28:54;;;;;;;5.47;4.97;;;10.60;99.90;;;;;;5038206;28;20495;-83
2022/11/16 00:31:23;;;;;;;6.97;4.60;;;10.50;99.90;;;;;;5038641;28;20451;-83
2022/11/16 00:33:50;;;;;;;4.80;4.40;;;10.70;99.90;;;;;;5038921;28;20460;-83
2022/11/16 00:36:17;;;;;;;8.10;5.20;;;10.70;99.90;;;;;;5038343;28;21102;-82
2022/11/16 00:38:44;;;;;;;5.47;5.07;;;10.80;99.90;;;;;;5038580;28;20792;-83
2022/11/16 00:41:11;;;;;;;6.80;5.20;;;10.80;99.90;;;;;;5038283;28;20951;-82
2022/11/16 00:43:37;;;;;;;5.60;5.20;;;10.90;99.90;;;;;;5037957;28;20461;-83
2022/11/16 00:46:05;;;;;;;6.80;6.20;;;10.80;99.90;;;;;;5037776;28;20490;-82
2022/11/16 00:48:33;;;;;;;5.40;4.60;;;10.80;99.90;;;;;;5038051;28;20493;-82
2022/11/16 00:51:00;;;;;;;6.90;6.30;;;10.80;99.90;;;;;;5038893;28;20821;-82
2022/11/16 00:53:26;;;;;;;5.23;4.83;;;10.80;99.90;;;;;;5038438;28;20447;-83
2022/11/16 00:55:53;;;;;;;6.37;5.57;;;10.80;99.90;;;;;;5038348;28;20480;-82
2022/11/16 00:58:20;;;;;;;5.00;4.57;;;10.80;99.90;;;;;;5038529;28;20805;-82
2022/11/16 01:00:47;;;;;;;5.03;4.50;;;10.70;99.90;;;;;;5052516;28;20457;-82
2022/11/16 01:03:13;;;;;;;5.63;4.83;;;10.70;99.90;;;;;;5039180;28;20444;-81
2022/11/16 01:05:41;;;;;;;5.77;5.33;;;10.70;99.90;;;;;;5038020;28;21006;-83
2022/11/16 01:08:09;;;;;;;5.33;4.93;;;10.80;99.90;;;;;;5037246;28;20999;-82
2022/11/16 01:10:37;;;;;;;6.33;5.77;;;10.70;99.90;;;;;;5038594;28;20984;-82
2022/11/16 01:13:03;;;;;;;6.47;5.97;;;10.80;99.90;;;;;;5038288;28;20463;-82
2022/11/16 01:15:30;;;;;;;6.27;5.30;;;10.80;99.90;;;;;;5038092;28;20468;-82
2022/11/16 01:17:57;;;;;;;6.90;6.30;;;10.80;99.90;;;;;;5037972;28;20197;-82
2022/11/16 01:20:27;;;;;;;10.40;5.90;;;10.80;99.90;;;;;;5038941;28;20460;-82
2022/11/16 01:22:56;;;;;;;8.00;6.10;;;10.80;99.90;;;;;;5038168;28;20455;-82
2022/11/16 01:25:22;;;;;;;5.17;4.77;;;10.80;99.90;;;;;;5038337;28;20466;-83
2022/11/16 01:27:49;;;;;;;6.20;5.70;;;10.80;99.90;;;;;;5038012;28;20510;-83
2022/11/16 01:30:16;;;;;;;6.03;5.53;;;10.80;99.90;;;;;;5038508;28;20458;-83
2022/11/16 01:32:43;;;;;;;6.40;5.80;;;10.80;99.90;;;;;;5038028;28;20837;-83
2022/11/16 01:35:16;;;;;;;6.10;5.50;;;10.80;99.90;;;;;;5038415;28;20473;-82
2022/11/16 01:37:42;;;;;;;5.00;4.60;;;10.80;99.90;;;;;;5038191;28;20202;-82
2022/11/16 01:40:12;;;;;;;5.20;4.80;;;10.80;99.90;;;;;;5038029;28;20464;-82
2022/11/16 01:42:39;;;;;;;6.00;5.50;;;10.80;99.90;;;;;;5037525;28;20459;-82
2022/11/16 01:45:16;;;;;;;5.63;4.60;;;10.80;99.90;;;;;;5037519;28;20667;-82
2022/11/16 01:47:43;;;;;;;5.65;5.05;;;10.70;99.90;;;;;;5037860;28;20556;-83
2022/11/16 01:50:13;;;;;;;5.27;4.83;;;10.70;99.90;;;;;;5037760;28;20203;-83
2022/11/16 01:52:45;;;;;;;5.50;5.07;;;10.70;99.90;;;;;;5041322;28;20951;-83
2022/11/16 01:55:14;;;;;;;6.88;6.35;;;10.70;99.90;;;;;;5047310;28;20224;-83
2022/11/16 01:57:43;;;;;;;5.73;5.23;;;10.60;99.90;;;;;;5037475;28;20198;-83
2022/11/16 02:00:13;;;;;;;6.20;5.70;;;10.70;99.90;;;;;;5037994;28;20462;-83
2022/11/16 02:02:40;;;;;;;6.10;5.03;;;10.70;99.90;;;;;;5037519;28;20459;-83
2022/11/16 02:05:08;;;;;;;6.63;5.10;;;10.70;99.90;;;;;;5036871;28;20476;-83
2022/11/16 02:10:52;;;;;;;6.07;5.30;;;10.70;99.90;;;;;;5036552;28;20435;-83
2022/11/16 02:13:34;;;;;;;6.83;5.73;;;10.70;99.90;;;;;;5037196;28;20467;-83
2022/11/16 02:16:10;;;;;;;7.03;6.20;;;10.70;99.90;;;;;;5036350;28;20474;-82
2022/11/16 02:18:44;;;;;;;5.37;4.90;;;10.70;99.90;;;;;;5036256;28;20452;-82
2022/11/16 02:21:27;;;;;;;5.40;5.00;;;10.80;99.90;;;;;;5036641;28;20457;-83
2022/11/16 02:24:20;;;;;;;5.27;4.80;;;10.80;99.90;;;;;;5036780;28;20461;-83
2022/11/16 02:27:21;;;;;;;5.17;4.60;;;10.80;99.90;;;;;;5037081;28;20467;-83
2022/11/16 02:29:52;;;;;;;5.37;4.87;;;10.80;99.90;;;;;;4992988;28;20454;-83
2022/11/16 02:32:24;;;;;;;5.77;5.00;;;10.80;99.90;;;;;;5036352;28;20959;-82
2022/11/16 02:34:56;;;;;;;5.10;4.70;;;10.80;99.90;;;;;;5037597;28;20432;-83
2022/11/16 02:37:26;;;;;;;4.75;4.35;;;10.80;99.90;;;;;;5037036;28;20436;-83
2022/11/16 02:39:57;;;;;;;4.03;3.73;;;10.80;99.90;;;;;;5036526;28;20208;-82
2022/11/16 02:42:30;;;;;;;4.67;4.27;;;10.80;99.90;;;;;;5036775;28;20448;-83
2022/11/16 02:45:00;;;;;;;6.30;3.70;;;10.60;99.90;;;;;;5036176;28;20478;-83
2022/11/16 02:47:31;;;;;;;4.13;3.83;;;10.60;99.90;;;;;;5050278;28;20408;-80
2022/11/16 02:50:04;;;;;;;4.80;3.73;;;10.50;99.90;;;;;;5033862;28;20471;-81
2022/11/16 02:52:31;;;;;;;3.80;3.50;;;10.60;99.90;;;;;;5033810;28;20439;-81
2022/11/16 02:54:58;;;;;;;3.53;3.27;;;10.70;99.90;;;;;;5033950;28;20476;-81
2022/11/16 02:57:33;;;;;;;3.23;3.03;;;10.70;99.90;;;;;;5033076;28;20455;-81
2022/11/16 03:00:04;;;;;;;3.87;3.47;;;10.70;99.90;;;;;;5033452;28;20454;-81
2022/11/16 03:02:36;;;;;;;4.43;3.50;;;10.70;99.90;;;;;;5035803;28;20452;-83
2022/11/16 03:05:07;;;;;;;3.23;3.03;;;10.70;99.90;;;;;;5035646;28;20480;-83
2022/11/16 03:07:44;;;;;;;5.97;3.63;;;10.70;99.90;;;;;;5035418;28;20816;-81
2022/11/16 03:11:58;;;;;;;3.80;3.43;;;10.70;99.90;;;;;;5035269;28;20917;-83
2022/11/16 03:13:01;;;;;;;3.20;2.97;;;10.80;99.90;;;;;;5015323;28;20444;-83
2022/11/16 03:15:30;;;;;;;3.13;2.93;;;10.70;99.90;;;;;;5016458;28;20833;-83
2022/11/16 03:17:59;;;;;;;3.40;3.10;;;10.70;99.90;;;;;;5034864;28;20453;-83
2022/11/16 03:20:29;;;;;;;4.13;3.73;;;10.80;99.90;;;;;;5035384;28;20451;-83
2022/11/16 03:22:58;;;;;;;3.60;3.30;;;10.80;99.90;;;;;;5015795;28;20453;-83
2022/11/16 03:25:33;;;;;;;3.63;3.33;;;10.80;99.90;;;;;;5015703;28;20476;-82
2022/11/16 03:28:07;;;;;;;4.37;4.07;;;10.90;99.90;;;;;;5015627;28;20217;-83
2022/11/16 03:30:39;;;;;;;4.60;4.13;;;10.90;99.90;;;;;;5015268;28;20441;-84
2022/11/16 03:33:14;;;;;;;4.00;3.63;;;10.90;99.90;;;;;;5032755;28;20447;-83
2022/11/16 03:35:48;;;;;;;3.57;3.27;;;11.00;99.90;;;;;;5035005;28;20554;-84
2022/11/16 03:38:17;;;;;;;3.40;3.10;;;11.00;99.90;;;;;;5035234;28;20451;-83
2022/11/16 03:40:46;;;;;;;3.40;3.10;;;11.00;99.90;;;;;;5044176;28;20454;-81
2022/11/16 03:43:14;;;;;;;2.90;2.50;;;11.00;99.90;;;;;;5041235;28;20447;-83
2022/11/16 03:45:44;;;;;;;4.80;4.40;;;11.00;99.90;;;;;;5036023;28;20489;-83
2022/11/16 03:48:12;;;;;;;4.20;3.80;;;11.00;99.90;;;;;;5035608;28;20482;-82
2022/11/16 03:50:39;;;;;;;3.53;3.23;;;11.00;99.90;;;;;;5036644;28;20453;-83
2022/11/16 03:53:06;;;;;;;5.83;5.43;;;10.90;99.90;;;;;;5036475;28;20858;-82
2022/11/16 03:55:33;;;;;;;6.13;5.40;;;10.90;99.90;;;;;;5036151;28;20478;-83
2022/11/16 03:58:00;;;;;;;6.77;6.20;;;11.00;99.90;;;;;;5035599;28;20965;-82
2022/11/16 04:00:27;;;;;;;7.07;6.47;;;11.00;99.90;;;;;;5036067;28;20453;-82
2022/11/16 04:02:55;;;;;;;6.77;6.17;;;10.90;99.90;;;;;;5035549;28;20820;-82
2022/11/16 04:24:39;;;;;;;3.70;3.40;;;10.70;99.90;;;;;;5021647;28;20834;-82
2022/11/16 04:29:54;;;;;;;4.87;2.67;;;10.80;99.90;;;;;;5033916;28;20486;-82
2022/11/16 04:37:52;;;;;;;3.63;3.33;;;10.50;99.90;;;;;;5014227;28;20431;-82
2022/11/16 04:40:20;;;;;;;3.90;3.50;;;10.40;99.90;;;;;;5014501;28;20456;-83
2022/11/16 04:42:50;;;;;;;3.20;2.93;;;10.40;99.90;;;;;;5034643;28;20462;-82
2022/11/16 04:48:04;;;;;;;3.50;3.30;;;10.40;99.90;;;;;;5075402;28;20683;-86
2022/11/16 04:50:35;;;;;;;3.60;2.77;;;10.40;99.90;;;;;;5075909;28;20448;-86
2022/11/16 04:53:03;;;;;;;3.10;2.80;;;10.40;99.90;;;;;;5075763;28;20438;-86
2022/11/16 04:55:29;;;;;;;3.60;3.30;;;10.40;99.90;;;;;;5071245;28;20471;-85
2022/11/16 04:57:56;;;;;;;3.67;2.77;;;10.50;99.90;;;;;;5055527;28;20445;-85
2022/11/16 05:00:23;;;;;;;2.10;2.00;;;10.50;99.90;;;;;;5055830;28;20450;-86
2022/11/16 05:02:50;;;;;;;2.90;2.70;;;10.60;99.90;;;;;;5056860;28;20475;-85
2022/11/16 05:05:24;;;;;;;4.03;3.73;;;10.70;99.90;;;;;;5058039;28;20566;-85
2022/11/16 05:07:53;;;;;;;3.50;2.90;;;10.70;99.90;;;;;;5055250;28;20836;-87
2022/11/16 05:10:26;;;;;;;5.17;3.20;;;10.90;99.90;;;;;;5055322;28;20491;-86
2022/11/16 05:12:52;;;;;;;4.03;3.73;;;11.00;99.90;;;;;;5056073;28;20438;-86
2022/11/16 05:15:27;;;;;;;4.07;3.77;;;10.90;99.90;;;;;;5056008;28;20475;-86
2022/11/16 05:17:55;;;;;;;3.37;3.07;;;10.90;99.90;;;;;;5055538;28;20542;-86
2022/11/16 05:24:32;;;;;;;6.80;6.10;;;11.10;99.90;;;;;;5055464;28;20959;-85
2022/11/16 05:25:55;;;;;;;5.17;4.47;;;11.10;99.90;;;;;;5055089;28;20510;-86
2022/11/16 05:28:21;;;;;;;5.23;4.73;;;11.10;99.90;;;;;;5055056;28;20455;-86
2022/11/16 05:30:48;;;;;;;5.50;5.07;;;11.00;99.90;;;;;;5055021;28;20463;-86
2022/11/16 05:33:17;;;;;;;4.00;3.60;;;11.00;99.90;;;;;;5055481;28;20549;-86
2022/11/16 05:35:52;;;;;;;3.23;2.93;;;11.00;99.90;;;;;;5054858;28;21075;-87
2022/11/16 05:38:20;;;;;;;3.03;2.70;;;11.00;99.90;;;;;;5055008;28;20448;-87
2022/11/16 05:40:47;;;;;;;5.47;5.00;;;10.90;99.90;;;;;;5055607;28;20834;-86
2022/11/16 05:43:13;;;;;;;3.77;3.47;;;10.90;99.90;;;;;;5055494;28;20462;-86
2022/11/16 05:45:43;;;;;;;3.77;3.50;;;10.90;99.90;;;;;;5054770;28;20995;-86
2022/11/16 05:48:10;;;;;;;6.43;3.63;;;10.90;99.90;;;;;;5054014;28;20458;-86
2022/11/16 05:50:37;;;;;;;2.80;2.60;;;10.90;99.90;;;;;;5055078;28;20477;-86
2022/11/16 05:53:04;;;;;;;4.13;3.60;;;10.90;99.90;;;;;;5054942;28;20460;-86
2022/11/16 05:55:32;;;;;;;3.05;2.85;;;10.90;99.90;;;;;;5053876;28;21046;-86
2022/11/16 05:57:59;;;;;;;5.82;3.95;;;10.80;99.90;;;;;;5054743;28;20204;-86
2022/11/16 06:00:25;;;;;;;3.00;2.80;;;10.90;99.90;;;;;;5054659;28;20296;-86
2022/11/16 06:02:52;;;;;;;4.43;3.60;;;11.00;99.90;;;;;;5054452;28;20687;-86
2022/11/16 06:05:19;;;;;;;3.40;3.17;;;11.00;99.90;;;;;;5055845;28;20485;-86
2022/11/16 06:07:46;;;;;;;3.50;3.30;;;11.00;99.90;;;;;;5056885;28;20613;-86
2022/11/16 06:10:13;;;;;;;5.25;4.85;;;11.00;99.90;;;;;;5061677;28;20485;-86
2022/11/16 06:12:41;;;;;;;3.50;3.20;;;11.00;99.90;;;;;;5057275;28;20208;-85
2022/11/16 06:15:09;;;;;;;4.70;4.30;;;11.00;99.90;;;;;;5054730;28;20455;-87
2022/11/16 06:17:36;;;;;;;4.87;4.47;;;11.00;99.90;;;;;;5055232;28;20461;-87
2022/11/16 06:20:03;;;;;;;3.90;3.50;;;11.10;99.90;;;;;;5056584;28;20478;-87
2022/11/16 06:22:30;;;;;;;3.90;3.40;;;11.00;99.90;;;;;;5055047;28;20465;-87
2022/11/16 06:24:57;;;;;;;4.23;3.93;;;11.10;99.90;;;;;;5054787;28;20506;-87
2022/11/16 06:27:24;;;;;;;3.83;3.53;;;11.00;99.90;;;;;;5054523;28;20460;-87
2022/11/16 06:29:52;;;;;;;3.58;3.28;;;11.10;99.90;;;;;;5054247;28;20490;-87
2022/11/16 06:32:19;;;;;;;3.73;3.53;;;11.10;99.90;;;;;;5054128;28;20760;-87
2022/11/16 06:34:46;;;;;;;4.40;4.10;;;11.10;99.90;;;;;;5062352;28;20477;-87
2022/11/16 06:37:13;;;;;;;4.33;3.73;;;11.10;99.90;;;;;;5070962;28;20839;-87
2022/11/16 06:39:40;;;;;;;3.63;3.30;;;11.10;99.90;;;;;;5063616;28;20952;-86
2022/11/16 06:42:07;;;;;;;5.00;4.60;;;11.10;99.90;;;;;;5059698;28;20455;-87
2022/11/16 06:44:35;;;;;;;4.90;4.50;;;11.10;99.90;;;;;;5054927;28;20535;-88
2022/11/16 06:47:03;;;;;;;5.13;4.73;;;11.00;99.90;;;;;;5056746;28;20487;-85
2022/11/16 06:49:30;;;;;;;5.07;4.57;;;10.90;99.90;;;;;;5056181;28;20464;-85
2022/11/16 06:51:57;;;;;;;4.97;4.30;;;10.90;99.90;;;;;;5055978;28;20461;-85
2022/11/16 07:08:59;;;;;;;6.13;4.03;;;10.80;99.90;;;;;;4920137;29;20441;-88
2022/11/16 07:11:27;;;;;;;2.73;2.53;;;10.80;99.90;;;;;;4964640;28;20836;-86
2022/11/16 07:20:42;;;;;;;2.97;2.77;;;10.50;99.90;;;;;;5052529;28;20436;-88
2022/11/16 07:47:18;;;;;;;1.75;1.65;;;10.50;99.90;;;;;;4839696;29;20894;-86
2022/11/16 07:49:47;;;;;;;1.60;1.50;;;10.30;99.90;;;;;;4894251;29;20239;-87
2022/11/16 07:52:14;;;;;;;1.73;1.20;;;10.40;99.90;;;;;;4976585;28;20453;-87
2022/11/16 07:54:41;;;;;;;1.30;1.10;;;10.40;99.90;;;;;;5039785;28;20448;-87
2022/11/16 07:57:20;;;;;;;2.50;2.30;;;10.50;99.90;;;;;;5066085;28;20459;-89
2022/11/16 08:06:51;;;;;;;1.60;1.50;;;10.90;99.90;;;;;;4960810;28;20456;-90
2022/11/16 08:12:59;;;;;;;2.53;1.30;;;11.20;99.90;;;;;;4975643;28;20850;-88
2022/11/16 08:15:26;;;;;;;1.20;1.00;;;11.30;99.90;;;;;;4968181;28;20539;-86
2022/11/16 08:18:19;;;;;;;2.10;1.07;;;11.40;99.90;;;;;;5073662;28;20460;-90
2022/11/16 08:21:12;;;;;;;1.20;1.10;;;11.30;99.90;;;;;;5073621;28;20493;-87
2022/11/16 08:23:41;;;;;;;1.13;1.13;;;11.30;99.90;;;;;;5063224;28;20464;-85
2022/11/16 08:29:25;;;;;;;2.03;1.20;;;11.30;99.90;;;;;;5068083;28;20470;-83
2022/11/16 08:32:00;;;;;;;1.57;1.30;;;11.40;99.90;;;;;;5065752;28;20486;-85
2022/11/16 08:57:49;;;;;;;2.03;1.90;;;12.00;99.90;;;;;;5062589;28;20849;-86
2022/11/16 09:07:13;;;;;;;2.40;1.50;;;12.00;99.90;;;;;;5008471;28;20527;-85
2022/11/16 09:16:56;;;;;;;4.30;2.43;;;12.30;99.90;;;;;;4982832;28;21009;-88
2022/11/16 09:19:57;;;;;;;1.60;1.50;;;12.30;99.90;;;;;;4945871;28;21029;-87
2022/11/16 09:22:45;;;;;;;1.50;1.40;;;12.40;99.90;;;;;;4952491;28;20849;-86
2022/11/16 09:38:49;;;;;;;1.70;1.13;;;13.40;99.90;;;;;;4890343;29;20522;-84
2022/11/16 09:48:49;;;;;;;1.67;0.80;;;13.80;99.90;;;;;;4965664;28;20446;-87
2022/11/16 09:54:42;;;;;;;2.30;0.87;;;13.70;99.90;;;;;;5051762;28;20455;-89
2022/11/16 09:57:13;;;;;;;2.30;1.23;;;13.70;99.90;;;;;;5053963;28;20468;-82
2022/11/16 09:59:43;;;;;;;1.00;1.00;;;13.60;99.90;;;;;;5053288;28;20454;-83
2022/11/16 10:02:20;;;;;;;1.57;1.47;;;13.70;99.90;;;;;;5053388;28;20813;-83
2022/11/16 10:04:51;;;;;;;1.90;1.70;;;13.70;99.90;;;;;;5063521;28;20444;-83
2022/11/16 10:07:36;;;;;;;1.13;1.13;;;13.70;99.90;;;;;;5053519;28;20468;-85
2022/11/16 10:47:24;;;;;;;1.13;1.13;;;13.50;99.90;;;;;;5086847;22;20507;-85
2022/11/16 10:49:57;;;;;;;2.90;1.70;;;13.30;99.90;;;;;;5051197;28;20473;-85
2022/11/16 10:52:24;;;;;;;4.90;2.17;;;13.30;99.90;;;;;;5051377;28;20445;-85
2022/11/16 10:54:51;;;;;;;0.83;0.83;;;13.30;99.90;;;;;;5051732;28;20481;-86
2022/11/16 10:57:18;;;;;;;0.73;0.73;;;13.30;99.90;;;;;;5050413;28;20469;-85
2022/11/16 10:59:47;;;;;;;2.63;1.00;;;13.40;99.90;;;;;;5050744;28;20513;-86
2022/11/16 11:02:33;;;;;;;0.87;0.87;;;13.70;99.90;;;;;;5050977;28;20450;-86
2022/11/16 11:05:15;;;;;;;1.43;1.33;;;14.50;99.90;;;;;;5052352;28;20510;-87
2022/11/16 11:07:45;;;;;;;2.40;1.00;;;15.20;99.90;;;;;;5051338;28;20474;-86
2022/11/16 11:10:29;;;;;;;1.17;0.77;;;15.80;99.90;;;;;;5051519;28;20487;-86
2022/11/16 11:13:21;;;;;;;11.70;6.73;;;16.50;99.90;;;;;;5051476;28;20453;-86
2022/11/16 11:15:50;;;;;;;2.77;1.77;;;17.00;99.90;;;;;;5049348;28;20481;-85
2022/11/16 11:18:25;;;;;;;1.43;0.80;;;17.00;99.90;;;;;;5051370;28;20450;-87
2022/11/16 11:21:06;;;;;;;5.80;1.30;;;16.80;99.90;;;;;;5052018;28;20469;-86
2022/11/16 11:23:41;;;;;;;2.07;1.70;;;16.60;99.90;;;;;;5051787;28;20491;-86
2022/11/16 11:26:25;;;;;;;1.17;0.83;;;16.50;99.90;;;;;;5051765;28;20469;-86
2022/11/16 11:28:53;;;;;;;4.43;1.77;;;16.80;99.90;;;;;;5053670;28;20432;-85
2022/11/16 11:31:25;;;;;;;1.03;0.97;;;17.60;99.90;;;;;;5048484;28;20476;-86
2022/11/16 11:33:55;;;;;;;1.17;1.07;;;18.60;99.90;;;;;;5046151;28;20453;-85
2022/11/16 11:36:25;;;;;;;0.70;0.70;;;19.40;98.80;;;;;;5045395;28;20469;-85
2022/11/16 11:38:58;;;;;;;1.90;0.80;;;19.70;96.40;;;;;;5046986;28;20452;-85
2022/11/16 11:41:28;;;;;;;1.73;0.77;;;20.00;94.40;;;;;;5048823;28;20445;-85
2022/11/16 11:44:02;;;;;;;2.83;0.90;;;20.10;94.70;;;;;;5049098;28;20822;-85
2022/11/16 11:46:32;;;;;;;0.83;0.83;;;20.30;93.20;;;;;;5042943;28;20477;-85
2022/11/16 11:49:09;;;;;;;2.40;0.87;;;20.70;92.40;;;;;;5040174;28;20450;-85
2022/11/16 11:51:39;;;;;;;6.23;1.03;;;20.70;90.60;;;;;;5035865;28;20481;-85
2022/11/16 11:54:14;;;;;;;1.23;0.90;;;20.50;90.50;;;;;;5038153;28;20865;-85
2022/11/16 11:56:40;;;;;;;1.33;1.23;;;20.20;91.00;;;;;;5039921;28;20479;-85
2022/11/16 11:59:11;;;;;;;2.70;0.80;;;19.40;91.00;;;;;;5038642;28;20463;-85
2022/11/16 12:01:51;;;;;;;1.00;0.77;;;18.80;92.10;;;;;;5037180;28;20845;-85
2022/11/16 12:04:41;;;;;;;1.50;0.83;;;18.20;93.30;;;;;;5037741;28;20944;-85
2022/11/16 12:07:16;;;;;;;4.30;1.10;;;17.20;93.00;;;;;;5037401;28;20473;-85
2022/11/16 12:09:50;;;;;;;0.60;0.60;;;16.60;94.40;;;;;;5047793;28;20456;-86
2022/11/16 12:12:28;;;;;;;1.50;0.80;;;16.00;94.60;;;;;;5050275;28;20455;-86
2022/11/16 12:15:05;;;;;;;0.80;0.80;;;15.70;95.70;;;;;;5050401;28;20451;-86
2022/11/16 12:17:43;;;;;;;1.50;0.40;;;15.50;95.60;;;;;;5050657;28;20462;-86
2022/11/16 12:20:28;;;;;;;0.67;0.50;;;14.90;95.60;;;;;;5052488;28;20437;-86
2022/11/16 12:23:18;;;;;;;2.70;0.83;;;14.70;97.00;;;;;;5043199;28;20449;-85
2022/11/16 12:25:54;;;;;;;1.07;0.97;;;14.50;96.30;;;;;;5050700;28;20466;-85
2022/11/16 12:28:40;;;;;;;3.60;1.07;;;14.10;96.90;;;;;;5034333;28;20448;-85
2022/11/16 12:31:24;;;;;;;0.60;0.60;;;13.90;97.60;;;;;;5034024;28;20510;-86
2022/11/16 12:33:58;;;;;;;3.20;0.90;;;13.80;98.20;;;;;;5036478;28;20437;-85
2022/11/16 12:36:34;;;;;;;0.60;0.60;;;13.60;98.20;;;;;;5036535;28;20473;-85
2022/11/16 12:39:13;;;;;;;0.70;0.60;;;13.40;99.30;;;;;;5038512;28;20531;-85
2022/11/16 12:42:15;;;;;;;0.70;0.50;;;13.40;99.30;;;;;;5038895;28;20449;-85
2022/11/16 12:45:03;;;;;;;3.63;0.83;;;13.30;99.20;;;;;;5042031;28;20524;-86
2022/11/16 12:47:41;;;;;;;0.70;0.70;;;13.20;99.40;;;;;;5038995;28;20484;-86
2022/11/16 12:50:21;;;;;;;2.33;0.90;;;13.20;99.60;;;;;;5037630;28;20484;-85
2022/11/16 12:53:03;;;;;;;1.40;0.80;;;13.20;99.90;;;;;;5049005;28;20415;-87
2022/11/16 12:55:40;;;;;;;2.67;0.70;;;14.20;99.90;;;;;;5046048;28;20457;-86
2022/11/16 12:58:25;;;;;;;2.47;1.07;;;15.50;99.60;;;;;;5046918;28;20455;-86
2022/11/16 13:01:05;;;;;;;1.23;0.60;;;16.70;96.20;;;;;;5046332;28;20454;-86
2022/11/16 13:03:41;;;;;;;1.93;0.80;;;17.80;95.40;;;;;;5057700;28;20476;-87
2022/11/16 13:06:11;;;;;;;0.70;0.40;;;18.80;94.40;;;;;;5060589;28;20493;-88
2022/11/16 13:08:45;;;;;;;1.10;0.60;;;19.00;91.10;;;;;;5054239;28;20468;-86
2022/11/16 13:11:18;;;;;;;1.03;0.70;;;19.10;91.30;;;;;;5053067;28;20621;-85
2022/11/16 13:13:45;;;;;;;0.63;0.63;;;19.10;90.10;;;;;;5052933;28;20452;-84
2022/11/16 13:16:16;;;;;;;3.90;0.97;;;18.50;89.80;;;;;;5053175;28;20472;-85
2022/11/16 13:18:44;;;;;;;1.40;0.57;;;18.50;88.10;;;;;;5052020;28;20547;-85
2022/11/16 13:21:20;;;;;;;0.93;0.70;;;18.50;90.10;;;;;;5053021;28;20543;-84
2022/11/16 13:24:03;;;;;;;2.00;0.80;;;18.30;89.40;;;;;;5036999;28;21011;-85
2022/11/16 13:26:38;;;;;;;1.23;0.60;;;18.30;86.20;;;;;;5045883;28;20501;-86
2022/11/16 13:29:26;;;;;;;0.77;0.77;;;18.30;87.10;;;;;;5054082;28;20447;-86
2022/11/16 13:31:57;;;;;;;3.60;0.50;;;18.00;85.50;;;;;;5055041;28;20495;-85
2022/11/16 13:34:26;;;;;;;8.77;4.43;;;17.80;87.30;;;;;;5054075;28;20439;-86
2022/11/16 13:36:53;;;;;;;2.10;0.90;;;17.90;87.60;;;;;;5054141;28;20483;-85
2022/11/16 13:40:00;;;;;;;1.03;0.73;;;17.20;88.00;;;;;;5054664;28;20448;-86
2022/11/16 13:42:28;;;;;;;1.00;0.63;;;17.10;90.30;;;;;;5054609;28;20474;-86
2022/11/16 13:45:06;;;;;;;2.00;1.40;;;16.80;91.20;;;;;;5053555;28;20450;-86
2022/11/16 13:47:34;;;;;;;2.40;1.00;;;16.20;91.30;;;;;;5052223;28;20516;-86
2022/11/16 13:50:02;;;;;;;5.43;0.90;;;15.80;91.70;;;;;;5054024;28;20455;-86
2022/11/16 13:52:41;;;;;;;2.70;1.00;;;15.60;92.10;;;;;;5052728;28;20459;-86
2022/11/16 13:55:16;;;;;;;1.37;1.20;;;15.40;93.20;;;;;;5053037;28;20454;-86
2022/11/16 13:57:51;;;;;;;1.07;0.57;;;15.40;93.10;;;;;;5050964;28;20474;-87
2022/11/16 14:00:22;;;;;;;1.37;0.50;;;15.30;94.00;;;;;;5052040;28;20451;-86
2022/11/16 14:03:26;;;;;;;0.53;0.53;;;15.40;93.30;;;;;;5049576;28;20510;-85
2022/11/16 14:05:53;;;;;;;2.23;0.90;;;15.30;92.40;;;;;;5044293;28;20487;-85
2022/11/16 14:08:49;;;;;;;1.60;0.93;;;15.50;93.10;;;;;;5043776;28;20483;-85
2022/11/16 14:11:33;;;;;;;2.13;0.80;;;15.90;93.90;;;;;;5042320;28;20495;-85
2022/11/16 14:14:01;;;;;;;2.70;0.77;;;16.00;92.80;;;;;;5042474;28;20532;-85
2022/11/16 14:16:46;;;;;;;1.00;0.77;;;16.20;92.70;;;;;;5050096;28;20462;-85
2022/11/16 14:19:51;;;;;;;1.00;1.00;;;16.30;93.80;;;;;;5034680;28;20493;-85
2022/11/16 14:22:39;;;;;;;1.73;0.97;;;16.20;91.60;;;;;;5034925;28;20450;-85
2022/11/16 14:25:15;;;;;;;1.77;1.20;;;16.20;93.00;;;;;;5041878;28;20522;-85
2022/11/16 14:27:51;;;;;;;2.33;0.93;;;16.10;92.90;;;;;;5039906;28;20493;-85
2022/11/16 14:30:25;;;;;;;0.90;0.67;;;16.00;92.70;;;;;;5040768;28;20548;-85
2022/11/16 14:32:55;;;;;;;1.23;0.93;;;15.90;92.70;;;;;;5039913;28;20476;-85
2022/11/16 14:38:32;;;;;;;1.80;1.23;;;15.40;93.00;;;;;;5043818;28;20815;-85
2022/11/16 14:41:05;;;;;;;3.10;0.80;;;15.50;92.80;;;;;;5041340;28;20525;-85
2022/11/16 14:43:39;;;;;;;1.10;0.73;;;15.60;93.30;;;;;;5041506;28;20527;-85
2022/11/16 14:46:14;;;;;;;0.70;0.60;;;15.90;93.70;;;;;;5043084;28;20502;-86
2022/11/16 14:48:44;;;;;;;2.00;1.20;;;16.10;92.20;;;;;;5041942;28;20441;-86
2022/11/16 14:51:15;;;;;;;1.97;1.60;;;16.00;91.70;;;;;;5042452;28;20485;-85
2022/11/16 14:53:47;;;;;;;1.60;0.77;;;15.90;91.60;;;;;;5040006;28;20443;-85
2022/11/16 14:56:16;;;;;;;2.43;1.20;;;15.70;91.70;;;;;;5037161;28;20484;-85
2022/11/16 14:58:53;;;;;;;1.53;0.90;;;15.60;91.60;;;;;;5036679;28;20450;-85
2022/11/16 15:01:26;;;;;;;1.40;1.20;;;15.40;91.90;;;;;;5047126;28;20450;-85
2022/11/16 15:03:57;;;;;;;1.73;1.50;;;15.20;92.40;;;;;;5049229;28;20446;-86
2022/11/16 15:06:26;;;;;;;1.10;0.80;;;15.10;92.80;;;;;;5047651;28;20527;-86
2022/11/16 15:08:57;;;;;;;1.33;1.10;;;14.90;93.20;;;;;;5047031;28;20975;-85
2022/11/16 15:12:40;;;;;;;2.77;1.37;;;14.80;93.50;;;;;;5050020;28;20486;-85
2022/11/16 15:14:20;;;;;;;4.97;2.07;;;14.60;94.20;;;;;;5039568;28;20520;-85
2022/11/16 15:16:52;;;;;;;1.80;1.10;;;14.40;94.50;;;;;;5034169;28;20507;-85
2022/11/16 15:19:19;;;;;;;3.07;1.00;;;14.20;94.40;;;;;;5034084;28;20449;-85
2022/11/16 15:21:58;;;;;;;4.93;1.23;;;13.90;95.10;;;;;;5034427;28;20453;-84
2022/11/16 15:24:26;;;;;;;4.60;2.03;;;13.70;95.30;;;;;;5034742;28;20456;-85
2022/11/16 15:27:11;;;;;;;1.10;1.00;;;13.60;95.70;;;;;;5034356;28;20842;-85
2022/11/16 15:29:40;;;;;;;1.57;1.47;;;13.50;95.90;;;;;;5034130;28;20460;-85
2022/11/16 15:32:15;;;;;;;2.30;1.37;;;13.30;96.20;;;;;;5035911;28;20539;-85
2022/11/16 15:34:43;;;;;;;2.10;1.70;;;13.10;96.20;;;;;;5035299;28;20836;-85
2022/11/16 15:37:28;;;;;;;3.00;1.40;;;13.00;96.60;;;;;;5036155;28;20901;-85
2022/11/16 15:39:57;;;;;;;4.73;2.27;;;12.90;97.00;;;;;;5046751;28;20494;-86
2022/11/16 15:42:28;;;;;;;3.63;1.60;;;12.90;97.40;;;;;;5047846;28;20520;-86
2022/11/16 15:45:00;;;;;;;3.10;1.40;;;12.70;97.50;;;;;;5047400;28;21005;-86
2022/11/16 15:47:28;;;;;;;3.40;1.53;;;12.70;97.70;;;;;;5046679;28;20541;-86
2022/11/16 15:49:55;;;;;;;1.83;1.67;;;12.70;97.80;;;;;;5046286;28;20454;-86
2022/11/16 15:52:43;;;;;;;5.67;4.10;;;12.60;98.20;;;;;;5046775;28;20509;-85
2022/11/16 15:55:40;;;;;;;4.03;3.00;;;12.50;98.80;;;;;;5046686;28;20463;-85
2022/11/16 15:58:14;;;;;;;2.90;2.40;;;12.40;99.10;;;;;;4966842;29;20598;-86
2022/11/16 16:00:47;;;;;;;6.50;2.60;;;12.30;99.40;;;;;;5032044;28;20484;-85
2022/11/16 16:03:23;;;;;;;2.57;1.67;;;12.20;99.70;;;;;;5046393;28;20448;-85
2022/11/16 16:05:51;;;;;;;3.60;2.73;;;12.20;99.90;;;;;;5047755;28;20476;-86
2022/11/16 16:08:34;;;;;;;5.83;4.70;;;12.00;99.90;;;;;;5043975;28;20448;-84
2022/11/16 16:11:09;;;;;;;2.30;2.10;;;11.90;99.90;;;;;;5033614;28;20997;-85
2022/11/16 16:13:41;;;;;;;3.27;2.00;;;11.80;99.90;;;;;;5033467;28;21027;-85
2022/11/16 16:16:24;;;;;;;6.63;2.57;;;11.70;99.90;;;;;;5033786;28;20480;-84
2022/11/16 16:18:56;;;;;;;4.53;2.53;;;11.50;99.90;;;;;;5034519;28;20452;-85
2022/11/16 16:21:24;;;;;;;4.37;3.10;;;11.40;99.90;;;;;;5034532;28;20550;-85
2022/11/16 16:23:56;;;;;;;3.50;3.00;;;11.40;99.90;;;;;;5034958;28;20460;-85
2022/11/16 16:26:24;;;;;;;6.70;3.43;;;11.20;99.90;;;;;;5034818;28;20480;-85
2022/11/16 16:28:51;;;;;;;2.77;2.57;;;11.20;99.90;;;;;;5034535;28;20462;-85
2022/11/16 16:31:20;;;;;;;5.03;2.33;;;11.10;99.90;;;;;;5035618;28;20582;-85
2022/11/16 16:33:47;;;;;;;4.33;2.30;;;11.00;99.90;;;;;;5040804;28;20452;-86
2022/11/16 16:36:14;;;;;;;5.73;3.00;;;11.00;99.90;;;;;;5046173;28;20473;-86